createdAt,value
2018-07-14T00:01:46.449Z,81.06
2018-07-14T00:04:22.148Z,81.15
2018-07-14T00:06:55.854Z,80.75
2018-07-14T00:09:33.296Z,81.08
2018-07-14T00:12:07.400Z,81.21
2018-07-14T00:14:39.897Z,81.40
2018-07-14T00:17:12.480Z,81.54
2018-07-14T00:19:45.187Z,81.26
2018-07-14T00:22:18.460Z,80.85
2018-07-14T00:24:51.512Z,80.18
2018-07-14T00:27:25.310Z,79.69
2018-07-14T00:29:57.799Z,79.28
2018-07-14T00:32:34.842Z,79.34
2018-07-14T00:35:10.709Z,79.37
2018-07-14T00:37:43.860Z,78.62
2018-07-14T00:40:16.347Z,77.70
2018-07-14T00:42:49.304Z,77.13
2018-07-14T00:45:22.637Z,77.22
2018-07-14T00:47:54.988Z,77.32
2018-07-14T00:50:28.792Z,76.97
2018-07-14T00:53:03.232Z,76.21
2018-07-14T00:55:37.069Z,76.29
2018-07-14T00:58:09.810Z,76.76
2018-07-14T01:00:42.457Z,77.29
2018-07-14T01:03:18.912Z,77.79
2018-07-14T01:05:52.817Z,78.09
2018-07-14T01:08:26.896Z,78.14
2018-07-14T01:11:00.393Z,77.68
2018-07-14T01:13:34.093Z,77.22
2018-07-14T01:16:08.203Z,77.16
2018-07-14T01:18:40.677Z,77.48
2018-07-14T01:21:13.391Z,77.36
2018-07-14T01:23:49.303Z,76.79
2018-07-14T01:26:21.668Z,76.18
2018-07-14T01:28:54.463Z,75.83
2018-07-14T01:31:26.863Z,75.66
2018-07-14T01:33:59.572Z,75.57
2018-07-14T01:36:32.492Z,75.45
2018-07-14T01:39:06.331Z,75.27
2018-07-14T01:41:38.733Z,74.97
2018-07-14T01:44:11.597Z,74.95
2018-07-14T01:46:43.924Z,75.41
2018-07-14T01:49:17.038Z,75.58
2018-07-14T01:51:49.733Z,75.54
2018-07-14T01:54:23.336Z,75.37
2018-07-14T01:56:55.960Z,75.52
2018-07-14T01:59:28.862Z,75.82
2018-07-14T02:02:01.254Z,76.34
2018-07-14T02:04:34.848Z,76.47
2018-07-14T02:07:09.561Z,76.68
2018-07-14T02:09:42.904Z,76.76
2018-07-14T02:12:15.432Z,76.90
2018-07-14T02:14:48.230Z,76.72
2018-07-14T02:17:21.959Z,76.84
2018-07-14T02:19:54.502Z,77.02
2018-07-14T02:22:27.166Z,77.31
2018-07-14T02:24:59.816Z,77.34
2018-07-14T02:27:32.420Z,77.43
2018-07-14T02:30:06.650Z,77.70
2018-07-14T02:32:39.195Z,77.92
2018-07-14T02:35:11.781Z,78.06
2018-07-14T02:37:45.554Z,77.97
2018-07-14T02:40:18.423Z,77.91
2018-07-14T02:42:50.792Z,77.85
2018-07-14T02:45:24.644Z,77.98
2018-07-14T02:48:00.118Z,77.93
2018-07-14T02:50:32.580Z,77.90
2018-07-14T02:53:13.672Z,78.24
2018-07-14T02:55:47.847Z,78.39
2018-07-14T02:58:21.835Z,78.44
2018-07-14T03:00:54.851Z,78.55
2018-07-14T03:03:27.426Z,78.97
2018-07-14T03:06:00.773Z,79.02
2018-07-14T03:08:33.580Z,79.54
2018-07-14T03:11:06.869Z,79.90
2018-07-14T03:13:39.650Z,80.14
2018-07-14T03:16:13.390Z,80.28
2018-07-14T03:18:45.772Z,80.31
2018-07-14T03:21:18.295Z,80.26
2018-07-14T03:23:51.128Z,80.07
2018-07-14T03:26:24.029Z,80.06
2018-07-14T03:28:56.432Z,80.23
2018-07-14T03:31:29.253Z,80.20
2018-07-14T03:34:01.784Z,80.89
2018-07-14T03:36:34.523Z,81.81
2018-07-14T03:39:09.313Z,82.22
2018-07-14T03:41:42.017Z,82.19
2018-07-14T03:44:14.568Z,82.33
2018-07-14T03:46:47.418Z,82.29
2018-07-14T03:49:19.932Z,82.08
2018-07-14T03:51:52.821Z,82.09
2018-07-14T03:54:25.712Z,82.17
2018-07-14T03:56:58.397Z,81.94
2018-07-14T03:59:30.841Z,81.95
2018-07-14T04:02:03.761Z,82.03
2018-07-14T04:04:36.213Z,82.21
2018-07-14T04:07:08.785Z,82.14
2018-07-14T04:09:41.578Z,82.09
2018-07-14T04:12:24.647Z,82.03
2018-07-14T04:14:57.193Z,82.13
2018-07-14T04:17:29.954Z,82.24
2018-07-14T04:20:02.617Z,82.22
2018-07-14T04:22:35.141Z,82.17
2018-07-14T04:25:07.892Z,82.25
2018-07-14T04:27:40.307Z,82.79
2018-07-14T04:30:15.368Z,82.53
2018-07-14T04:32:48.316Z,82.44
2018-07-14T04:35:20.868Z,82.95
2018-07-14T04:37:53.463Z,82.88
2018-07-14T04:40:26.303Z,82.74
2018-07-14T04:42:58.812Z,82.49
2018-07-14T04:45:31.364Z,82.36
2018-07-14T04:48:05.885Z,81.96
2018-07-14T04:50:38.699Z,81.87
2018-07-14T04:53:12.083Z,81.94
2018-07-14T04:55:44.709Z,82.04
2018-07-14T04:58:17.191Z,82.17
2018-07-14T05:00:49.708Z,82.22
2018-07-14T05:03:22.673Z,82.16
2018-07-14T05:05:55.120Z,82.07
2018-07-14T05:08:27.653Z,81.97
2018-07-14T05:11:00.757Z,81.70
2018-07-14T05:13:34.248Z,81.35
2018-07-14T05:16:10.632Z,81.39
2018-07-14T05:18:43.672Z,81.14
2018-07-14T05:21:16.438Z,81.00
2018-07-14T05:23:48.890Z,80.79
2018-07-14T05:26:21.540Z,80.53
2018-07-14T05:28:55.477Z,80.29
2018-07-14T05:31:27.813Z,79.96
2018-07-14T05:34:00.329Z,79.52
2018-07-14T05:36:34.803Z,79.07
2018-07-14T05:39:08.838Z,78.83
2018-07-14T05:41:41.813Z,78.41
2018-07-14T05:44:14.548Z,78.06
2018-07-14T05:46:51.333Z,77.59
2018-07-14T05:49:26.557Z,77.05
2018-07-14T05:52:01.571Z,76.61
2018-07-14T05:54:35.637Z,76.16
2018-07-14T05:57:08.829Z,75.21
2018-07-14T05:59:42.268Z,73.99
2018-07-14T06:02:15.390Z,74.47
2018-07-14T06:04:48.281Z,74.37
2018-07-14T06:07:21.323Z,74.33
2018-07-14T06:09:54.060Z,74.05
2018-07-14T06:12:27.262Z,73.38
2018-07-14T06:15:04.154Z,71.19
2018-07-14T06:17:36.913Z,70.90
2018-07-14T06:20:10.426Z,69.33
2018-07-14T06:22:42.937Z,69.16
2018-07-14T06:25:15.863Z,68.29
2018-07-14T06:27:48.670Z,66.45
2018-07-14T06:30:21.698Z,65.56
2018-07-14T06:32:55.070Z,64.75
2018-07-14T06:35:30.247Z,64.54
2018-07-14T06:38:02.894Z,64.42
2018-07-14T06:40:35.398Z,64.08
2018-07-14T06:43:08.405Z,63.04
2018-07-14T06:45:40.941Z,62.85
2018-07-14T06:48:15.696Z,62.05
2018-07-14T06:50:48.254Z,61.81
2018-07-14T06:53:20.782Z,60.54
2018-07-14T06:55:55.609Z,60.71
2018-07-14T06:58:30.626Z,59.98
2018-07-14T07:01:03.232Z,60.38
2018-07-14T07:03:36.041Z,60.79
2018-07-14T07:06:10.130Z,60.54
2018-07-14T07:08:44.458Z,60.79
2018-07-14T07:11:18.635Z,60.87
2018-07-14T07:13:53.753Z,61.83
2018-07-14T07:16:26.279Z,61.94
2018-07-14T07:18:59.343Z,61.71
2018-07-14T07:21:33.215Z,61.37
2018-07-14T07:24:05.945Z,61.12
2018-07-14T07:26:38.451Z,60.65
2018-07-14T07:29:15.121Z,60.49
2018-07-14T07:31:52.563Z,60.25
2018-07-14T07:34:40.953Z,60.42
2018-07-14T07:37:41.937Z,59.97
2018-07-14T07:40:31.545Z,60.07
2018-07-14T07:43:11.316Z,59.47
2018-07-14T07:45:47.064Z,59.46
2018-07-14T07:48:26.354Z,58.44
2018-07-14T07:51:12.657Z,56.99
2018-07-14T07:53:50.348Z,56.90
2018-07-14T07:56:23.803Z,55.42
2018-07-14T07:58:56.315Z,50.65
2018-07-14T08:01:31.846Z,48.69
2018-07-14T08:04:14.444Z,48.00
2018-07-14T08:06:47.159Z,46.48
2018-07-14T08:09:20.780Z,45.48
2018-07-14T08:11:54.321Z,45.56
2018-07-14T08:14:26.737Z,45.92
2018-07-14T08:17:02.772Z,45.09
2018-07-14T08:19:37.027Z,44.94
2018-07-14T08:22:35.915Z,44.02
2018-07-14T08:25:10.610Z,42.87
2018-07-14T08:27:46.612Z,42.63
2018-07-14T08:30:22.655Z,42.70
2018-07-14T08:33:00.035Z,40.39
2018-07-14T08:35:32.995Z,40.69
2018-07-14T08:38:06.472Z,41.85
2018-07-14T08:40:39.134Z,42.17
2018-07-14T08:43:17.245Z,41.67
2018-07-14T08:45:50.677Z,42.66
2018-07-14T08:48:27.851Z,42.67
2018-07-14T08:51:08.451Z,43.66
2018-07-14T08:53:45.358Z,42.65
2018-07-14T08:56:31.078Z,43.12
2018-07-14T08:59:04.601Z,43.32
2018-07-14T09:01:41.294Z,42.05
2018-07-14T09:04:15.358Z,40.46
2018-07-14T09:06:49.962Z,41.25
2018-07-14T09:09:24.437Z,40.55
2018-07-14T09:12:00.777Z,40.82
2018-07-14T09:14:40.796Z,40.90
2018-07-14T09:17:18.285Z,41.83
2018-07-14T09:19:52.671Z,40.89
2018-07-14T09:22:30.282Z,40.91
2018-07-14T09:25:04.702Z,40.42
2018-07-14T09:27:39.388Z,40.23
2018-07-14T09:30:15.403Z,40.54
2018-07-14T09:32:48.093Z,41.91
2018-07-14T09:35:20.635Z,41.18
2018-07-14T09:37:53.880Z,40.21
2018-07-14T09:40:30.598Z,40.24
2018-07-14T09:43:06.084Z,40.52
2018-07-14T09:45:38.936Z,39.08
2018-07-14T09:48:12.817Z,38.65
2018-07-14T09:50:50.907Z,38.43
2018-07-14T09:53:25.084Z,38.41
2018-07-14T09:55:59.801Z,37.93
2018-07-14T09:58:42.284Z,38.30
2018-07-14T10:01:18.162Z,39.63
2018-07-14T10:03:51.693Z,38.42
2018-07-14T10:06:28.681Z,35.81
2018-07-14T10:09:01.982Z,35.60
2018-07-14T10:11:36.746Z,35.89
2018-07-14T10:14:10.296Z,35.77
2018-07-14T10:16:44.090Z,35.70
2018-07-14T10:19:20.320Z,36.43
2018-07-14T10:21:57.342Z,37.71
2018-07-14T10:24:32.526Z,37.27
2018-07-14T10:27:08.657Z,36.81
2018-07-14T10:29:43.997Z,36.48
2018-07-14T10:32:20.723Z,37.38
2018-07-14T10:34:54.978Z,37.25
2018-07-14T10:37:29.462Z,36.92
2018-07-14T10:40:04.171Z,36.49
2018-07-14T10:42:39.299Z,36.09
2018-07-14T10:45:15.741Z,35.74
2018-07-14T10:47:49.065Z,36.90
2018-07-14T10:50:21.720Z,37.79
2018-07-14T10:52:56.654Z,36.70
2018-07-14T10:55:30.573Z,35.44
2018-07-14T10:58:05.932Z,35.48
2018-07-14T11:00:40.333Z,34.45
2018-07-14T11:03:13.621Z,34.26
2018-07-14T11:05:50.660Z,33.82
2018-07-14T11:08:23.584Z,34.92
2018-07-14T11:10:57.971Z,34.94
2018-07-14T11:13:31.785Z,37.33
2018-07-14T11:16:06.730Z,38.80
2018-07-14T11:18:41.997Z,39.86
2018-07-14T11:21:17.333Z,38.67
2018-07-14T11:23:50.818Z,38.76
2018-07-14T11:26:26.250Z,37.55
2018-07-14T11:29:00.752Z,36.89
2018-07-14T11:31:38.589Z,36.37
2018-07-14T11:34:12.793Z,36.20
2018-07-14T11:36:50.085Z,35.92
2018-07-14T11:39:30.642Z,35.60
2018-07-14T11:42:17.847Z,35.47
2018-07-14T11:44:51.986Z,35.62
2018-07-14T11:47:25.546Z,35.24
2018-07-14T11:50:00.931Z,34.65
2018-07-14T11:52:33.472Z,33.01
2018-07-14T11:55:06.187Z,32.68
2018-07-14T11:57:39.773Z,34.10
2018-07-14T12:00:15.480Z,35.11
2018-07-14T12:02:48.374Z,34.46
2018-07-14T12:05:25.046Z,34.02
2018-07-14T12:07:59.630Z,34.07
2018-07-14T12:10:33.117Z,34.68
2018-07-14T12:13:09.354Z,34.72
2018-07-14T12:15:44.551Z,34.39
2018-07-14T12:18:18.984Z,35.56
2018-07-14T12:20:52.821Z,35.45
2018-07-14T12:23:26.569Z,34.98
2018-07-14T12:25:59.879Z,34.14
2018-07-14T12:28:34.640Z,33.45
2018-07-14T12:31:09.086Z,32.64
2018-07-14T12:33:45.820Z,33.17
2018-07-14T12:36:19.009Z,33.40
2018-07-14T12:38:51.656Z,33.72
2018-07-14T12:41:25.668Z,34.11
2018-07-14T12:43:59.067Z,34.05
2018-07-14T12:46:32.220Z,34.15
2018-07-14T12:49:05.557Z,33.91
2018-07-14T12:51:39.324Z,34.11
2018-07-14T12:54:13.833Z,33.32
2018-07-14T12:56:49.136Z,31.42
2018-07-14T12:59:23.570Z,30.44
2018-07-14T13:02:01.306Z,31.29
2018-07-14T13:04:38.241Z,31.62
2018-07-14T13:07:13.141Z,31.36
2018-07-14T13:09:48.778Z,29.32
2018-07-14T13:12:21.745Z,29.42
2018-07-14T13:14:54.271Z,28.03
2018-07-14T13:17:26.683Z,27.37
2018-07-14T13:20:04.370Z,28.00
2018-07-14T13:22:40.648Z,28.11
2018-07-14T13:25:15.739Z,27.47
2018-07-14T13:27:50.352Z,26.83
2018-07-14T13:30:23.715Z,26.62
2018-07-14T13:32:57.232Z,26.77
2018-07-14T13:35:31.103Z,27.34
2018-07-14T13:38:05.681Z,27.01
2018-07-14T13:40:42.910Z,26.81
2018-07-14T13:43:18.224Z,27.01
2018-07-14T13:45:52.239Z,26.81
2018-07-14T13:48:27.726Z,26.49
2018-07-14T13:51:02.436Z,25.79
2018-07-14T13:53:37.713Z,25.51
2018-07-14T13:56:13.429Z,25.61
2018-07-14T13:59:27.528Z,25.86
2018-07-14T14:02:03.833Z,25.69
2018-07-14T14:04:40.101Z,25.84
2018-07-14T14:07:18.345Z,25.16
2018-07-14T14:09:54.730Z,25.79
2018-07-14T14:12:31.453Z,25.62
2018-07-14T14:15:09.801Z,24.39
2018-07-14T14:17:45.400Z,24.76
2018-07-14T14:20:20.648Z,24.79
2018-07-14T14:22:56.951Z,23.83
2018-07-14T14:25:31.765Z,24.30
2018-07-14T14:28:07.381Z,24.73
2018-07-14T14:30:41.517Z,24.79
2018-07-14T14:33:16.119Z,25.23
2018-07-14T14:35:50.530Z,25.67
2018-07-14T14:38:23.109Z,25.20
2018-07-14T14:40:56.529Z,24.48
2018-07-14T14:43:29.388Z,23.75
2018-07-14T14:46:03.832Z,23.25
2018-07-14T14:48:37.097Z,23.60
2018-07-14T14:51:13.699Z,24.21
2018-07-14T14:53:47.153Z,24.72
2018-07-14T14:56:20.269Z,24.93
2018-07-14T14:58:53.412Z,25.36
2018-07-14T15:01:26.238Z,24.57
2018-07-14T15:03:58.722Z,24.83
2018-07-14T15:06:34.779Z,24.92
2018-07-14T15:09:08.506Z,23.37
2018-07-14T15:11:45.645Z,23.00
2018-07-14T15:14:20.693Z,21.48
2018-07-14T15:17:03.675Z,20.99
2018-07-14T15:19:40.599Z,21.70
2018-07-14T15:22:14.997Z,21.97
2018-07-14T15:24:56.280Z,22.81
2018-07-14T15:27:34.470Z,22.73
2018-07-14T15:30:09.020Z,23.58
2018-07-14T15:32:45.528Z,23.76
2018-07-14T15:35:22.859Z,23.71
2018-07-14T15:37:55.936Z,23.31
2018-07-14T15:40:28.511Z,23.49
2018-07-14T15:43:01.706Z,24.16
2018-07-14T15:45:35.012Z,24.35
2018-07-14T15:48:24.106Z,23.76
2018-07-14T15:50:58.400Z,24.17
2018-07-14T15:53:31.264Z,24.05
2018-07-14T15:56:05.536Z,23.94
2018-07-14T15:58:40.987Z,24.13
2018-07-14T16:01:13.741Z,24.21
2018-07-14T16:03:46.742Z,23.19
2018-07-14T16:06:19.801Z,22.23
2018-07-14T16:08:53.549Z,22.13
2018-07-14T16:11:28.002Z,22.34
2018-07-14T16:14:02.393Z,22.83
2018-07-14T16:16:34.833Z,22.53
2018-07-14T16:19:11.052Z,22.14
2018-07-14T16:21:43.945Z,22.69
2018-07-14T16:24:16.511Z,22.80
2018-07-14T16:26:50.570Z,23.13
2018-07-14T16:29:25.662Z,23.57
2018-07-14T16:31:59.128Z,22.86
2018-07-14T16:34:33.824Z,23.07
2018-07-14T16:37:09.755Z,22.97
2018-07-14T16:39:43.262Z,23.43
2018-07-14T16:42:19.793Z,22.83
2018-07-14T16:44:56.861Z,22.95
2018-07-14T16:47:33.636Z,23.00
2018-07-14T16:50:08.724Z,23.33
2018-07-14T16:52:42.348Z,23.08
2018-07-14T16:55:17.348Z,23.64
2018-07-14T16:57:53.493Z,24.22
2018-07-14T17:00:30.184Z,24.38
2018-07-14T17:03:03.901Z,24.52
2018-07-14T17:05:38.937Z,25.19
2018-07-14T17:08:17.292Z,25.47
2018-07-14T17:10:52.336Z,25.30
2018-07-14T17:13:27.248Z,25.28
2018-07-14T17:16:01.097Z,25.42
2018-07-14T17:18:35.213Z,25.78
2018-07-14T17:21:07.774Z,25.95
2018-07-14T17:23:51.288Z,25.95
2018-07-14T17:26:25.726Z,26.00
2018-07-14T17:29:01.058Z,26.47
2018-07-14T17:31:35.531Z,26.75
2018-07-14T17:34:10.000Z,27.42
2018-07-14T17:36:42.573Z,28.29
2018-07-14T17:39:15.419Z,28.61
2018-07-14T17:41:47.957Z,29.24
2018-07-14T17:44:20.841Z,29.18
2018-07-14T17:46:55.612Z,29.45
2018-07-14T17:49:32.092Z,29.92
2018-07-14T17:52:12.674Z,30.09
2018-07-14T17:54:50.739Z,30.59
2018-07-14T17:57:28.282Z,30.92
2018-07-14T18:00:03.686Z,31.10
2018-07-14T18:02:40.150Z,31.08
2018-07-14T18:05:12.969Z,30.98
2018-07-14T18:07:47.211Z,30.76
2018-07-14T18:10:21.398Z,30.59
2018-07-14T18:12:54.128Z,30.99
2018-07-14T18:15:29.230Z,31.26
2018-07-14T18:18:07.169Z,31.96
2018-07-14T18:20:40.838Z,32.70
2018-07-14T18:23:16.883Z,32.97
2018-07-14T18:25:50.479Z,33.34
2018-07-14T18:28:23.724Z,33.93
2018-07-14T18:30:58.944Z,34.29
2018-07-14T18:33:32.289Z,34.76
2018-07-14T18:36:09.543Z,35.35
2018-07-14T18:38:44.366Z,35.70
2018-07-14T18:41:19.468Z,35.69
2018-07-14T18:43:53.023Z,36.07
2018-07-14T18:46:27.845Z,36.34
2018-07-14T18:49:02.462Z,36.23
2018-07-14T18:51:39.248Z,36.57
2018-07-14T18:54:12.835Z,37.06
2018-07-14T18:56:54.792Z,37.34
2018-07-14T18:59:29.295Z,37.50
2018-07-14T19:02:04.902Z,37.87
2018-07-14T19:04:39.221Z,38.23
2018-07-14T19:07:14.683Z,38.56
2018-07-14T19:09:49.135Z,38.73
2018-07-14T19:12:21.716Z,39.27
2018-07-14T19:14:54.898Z,39.53
2018-07-14T19:17:30.023Z,39.84
2018-07-14T19:20:03.165Z,40.06
2018-07-14T19:22:50.944Z,40.40
2018-07-14T19:25:27.216Z,40.91
2018-07-14T19:28:03.813Z,41.13
2018-07-14T19:30:38.187Z,41.44
2018-07-14T19:33:15.452Z,41.84
2018-07-14T19:35:50.163Z,42.21
2018-07-14T19:38:24.317Z,42.67
2018-07-14T19:40:58.443Z,43.18
2018-07-14T19:43:33.377Z,43.70
2018-07-14T19:46:06.096Z,44.32
2018-07-14T19:48:41.552Z,44.53
2018-07-14T19:51:16.295Z,44.89
2018-07-14T19:53:50.927Z,45.44
2018-07-14T19:56:26.034Z,45.69
2018-07-14T19:59:02.016Z,46.06
2018-07-14T20:01:37.994Z,46.33
2018-07-14T20:04:13.315Z,46.68
2018-07-14T20:06:57.371Z,47.16
2018-07-14T20:09:35.271Z,47.29
2018-07-14T20:12:09.192Z,47.76
2018-07-14T20:14:43.360Z,47.65
2018-07-14T20:17:22.088Z,48.04
2018-07-14T20:19:58.850Z,48.46
2018-07-14T20:22:36.879Z,48.94
2018-07-14T20:25:16.283Z,49.11
2018-07-14T20:28:06.360Z,49.18
2018-07-14T20:30:41.589Z,49.31
2018-07-14T20:33:14.907Z,49.65
2018-07-14T20:35:48.898Z,49.82
2018-07-14T20:38:24.464Z,49.95
2018-07-14T20:41:02.174Z,50.33
2018-07-14T20:43:36.971Z,50.61
2018-07-14T20:46:11.918Z,51.18
2018-07-14T20:48:51.587Z,51.94
2018-07-14T20:51:26.459Z,52.27
2018-07-14T20:54:02.057Z,52.60
2018-07-14T20:56:37.709Z,52.85
2018-07-14T20:59:19.600Z,53.39
2018-07-14T21:01:58.948Z,53.88
2018-07-14T21:04:39.379Z,54.26
2018-07-14T21:07:18.438Z,54.73
2018-07-14T21:09:58.711Z,55.60
2018-07-14T21:12:37.857Z,55.91
2018-07-14T21:15:23.119Z,55.89
2018-07-14T21:18:06.555Z,55.99
2018-07-14T21:20:47.859Z,56.30
2018-07-14T21:23:22.194Z,56.92
2018-07-14T21:25:56.185Z,57.66
2018-07-14T21:28:32.602Z,58.19
2018-07-14T21:31:10.459Z,59.12
2018-07-14T21:33:43.681Z,60.12
2018-07-14T21:36:17.980Z,60.11
2018-07-14T21:38:55.254Z,60.00
2018-07-14T21:41:31.988Z,59.71
2018-07-14T21:44:08.177Z,59.74
2018-07-14T21:46:42.945Z,60.24
2018-07-14T21:49:16.273Z,60.98
2018-07-14T21:51:56.947Z,61.62
2018-07-14T21:54:35.361Z,61.74
2018-07-14T21:57:08.568Z,61.99
2018-07-14T21:59:44.039Z,61.87
2018-07-14T22:02:18.388Z,61.87
2018-07-14T22:04:58.817Z,61.95
2018-07-14T22:07:51.445Z,62.00
2018-07-14T22:10:32.417Z,62.52
2018-07-14T22:13:04.884Z,62.32
2018-07-14T22:15:46.062Z,62.10
2018-07-14T22:19:24.124Z,61.88
2018-07-14T22:21:57.857Z,62.05
2018-07-14T22:24:41.268Z,62.45
2018-07-14T22:27:16.563Z,62.46
2018-07-14T22:29:53.318Z,62.66
2018-07-14T22:32:28.006Z,62.89
2018-07-14T22:35:08.767Z,63.09
2018-07-14T22:37:44.009Z,63.34
2018-07-14T22:40:17.741Z,63.11
2018-07-14T22:42:51.637Z,62.73
2018-07-14T22:45:26.250Z,63.05
2018-07-14T22:47:58.725Z,63.05
2018-07-14T22:50:36.551Z,63.17
2018-07-14T22:53:09.950Z,63.13
2018-07-14T22:55:45.969Z,63.10
2018-07-14T22:58:19.710Z,63.22
2018-07-14T23:00:53.263Z,63.22
2018-07-14T23:03:26.104Z,63.48
2018-07-14T23:05:58.933Z,63.73
2018-07-14T23:08:32.315Z,63.37
2018-07-14T23:11:05.582Z,63.12
2018-07-14T23:13:40.637Z,62.98
2018-07-14T23:16:13.718Z,62.84
2018-07-14T23:18:47.889Z,62.66
2018-07-14T23:21:21.638Z,62.81
2018-07-14T23:23:55.847Z,62.82
2018-07-14T23:26:29.769Z,62.70
2018-07-14T23:29:02.700Z,62.47
2018-07-14T23:31:35.309Z,62.05
2018-07-14T23:34:10.045Z,61.88
2018-07-14T23:36:45.737Z,62.15
2018-07-14T23:39:20.079Z,62.56
2018-07-14T23:41:55.920Z,62.88
2018-07-14T23:44:30.097Z,63.03
2018-07-14T23:47:02.902Z,63.10
2018-07-14T23:49:35.437Z,63.29
2018-07-14T23:52:09.678Z,63.53
2018-07-14T23:54:44.058Z,64.07
2018-07-14T23:57:18.668Z,64.20
2018-07-14T23:59:52.620Z,64.33
